Terminal Aerodrome Forecast
Issued by NWS Blacksburg, VA

Home | Current Version | Previous Version | Text Only | Print | Product List | Glossary On
Versions: 1 2 3 4 5 6 7 8 9 10 11 12 13 14 15 16 17 18 19 20 21 22 23 24
000
FTUS41 KRNK 251139
TAFLYH
TAF
KLYH 251139Z 2512/2612 VRB03KT P6SM -RA OVC090
     FM251400 06004KT P6SM -RA OVC060
     FM251700 08005KT 5SM -RA BR OVC025
     FM252200 08006KT 4SM -RA SCT007 OVC013
     FM260200 07007KT 2SM -RADZ BR OVC005=

USA.gov is the U.S. government's official web portal to all federal, state and local government web resources and services.